Terminal Aerodrome Forecast
Issued by NWS Shreveport, LA

Home | Current Version | Previous Version | Text Only | Print | Product List | Glossary On
Versions: 1 2 3 4 5 6 7 8 9 10 11 12 13 14 15 16 17 18 19 20 21 22 23
000
FTUS44 KSHV 281244 AAA
TAFLFK
TAF AMD
KLFK 281244Z 2813/2912 15004KT 1/2SM FG OVC002
      TEMPO 2813/2815 15005KT 6SM BR OVC005
     FM281500 16006KT P6SM SCT025 BKN100
     FM290100 13004KT P6SM SCT250=

USA.gov is the U.S. government's official web portal to all federal, state and local government web resources and services.